Time;durP1;ratioP1;P1;durP2;ratioP2;P2;SDS_P1;SDS_P2;PMS_P1;PMS_P2;Temp;Humidity;BMP_temperature;BMP_pressure;BME280_temperature;BME280_humidity;BME280_pressure;Samples;Min_cycle;Max_cycle;Signal;HPM_P1;HPM_P2
2021/09/15 00:01:31;;;;;;;11.43;8.70;;;20.20;86.80;;;;;;5054960;28;20021;-77
2021/09/15 00:03:56;;;;;;;12.50;9.13;;;20.20;87.30;;;;;;5056916;28;20068;-77
2021/09/15 00:06:22;;;;;;;13.25;10.93;;;20.20;87.80;;;;;;5063466;28;20085;-77
2021/09/15 00:08:47;;;;;;;10.30;9.05;;;20.20;88.00;;;;;;5071257;28;20037;-75
2021/09/15 00:11:16;;;;;;;13.60;10.38;;;20.20;88.00;;;;;;5067446;28;20036;-76
2021/09/15 00:13:42;;;;;;;12.18;9.57;;;20.20;88.50;;;;;;5069145;28;20116;-77
2021/09/15 00:16:08;;;;;;;12.80;9.15;;;20.20;89.00;;;;;;5054556;28;20076;-77
2021/09/15 00:18:34;;;;;;;12.98;9.02;;;20.20;89.40;;;;;;5056012;28;20025;-76
2021/09/15 00:20:59;;;;;;;12.60;11.27;;;20.20;88.90;;;;;;5054760;28;20021;-77
2021/09/15 00:23:25;;;;;;;15.85;12.35;;;20.20;90.00;;;;;;5054911;28;20099;-76
2021/09/15 00:25:50;;;;;;;11.20;9.60;;;20.20;90.00;;;;;;5055785;28;20351;-76
2021/09/15 00:28:16;;;;;;;14.05;11.00;;;20.20;90.00;;;;;;5054777;28;20052;-76
2021/09/15 00:30:41;;;;;;;11.50;8.45;;;20.10;90.10;;;;;;5055931;28;20419;-77
2021/09/15 00:33:07;;;;;;;13.60;8.98;;;20.20;90.20;;;;;;5055413;28;20032;-76
2021/09/15 00:35:33;;;;;;;13.18;8.88;;;20.20;90.10;;;;;;5056118;28;20083;-77
2021/09/15 00:37:58;;;;;;;10.25;8.68;;;20.10;90.20;;;;;;5055657;28;20028;-76
2021/09/15 00:40:24;;;;;;;10.32;8.80;;;20.10;90.20;;;;;;5055311;28;20433;-76
2021/09/15 00:42:50;;;;;;;11.43;8.88;;;20.10;90.30;;;;;;5054053;28;20124;-77
2021/09/15 00:45:17;;;;;;;10.50;8.75;;;20.10;90.50;;;;;;5054812;28;20036;-77
2021/09/15 00:47:42;;;;;;;11.98;10.48;;;20.10;90.40;;;;;;5054046;28;20108;-76
2021/09/15 00:50:09;;;;;;;13.65;9.45;;;20.00;90.50;;;;;;5052873;28;20125;-77
2021/09/15 00:52:35;;;;;;;14.20;9.98;;;20.10;90.40;;;;;;5053239;28;20045;-77
2021/09/15 00:55:00;;;;;;;12.98;9.85;;;20.00;90.50;;;;;;5053482;28;20017;-76
2021/09/15 00:57:26;;;;;;;10.77;7.63;;;20.00;90.50;;;;;;5054537;28;20036;-76
2021/09/15 00:59:51;;;;;;;12.07;9.68;;;20.00;90.60;;;;;;5052344;28;20450;-76
2021/09/15 01:02:17;;;;;;;10.85;9.18;;;20.00;90.60;;;;;;5053113;28;20017;-76
2021/09/15 01:04:44;;;;;;;9.90;7.63;;;20.00;90.80;;;;;;5053205;28;20041;-77
2021/09/15 01:07:10;;;;;;;11.75;9.15;;;19.90;90.80;;;;;;5054885;28;20037;-77
2021/09/15 01:09:36;;;;;;;11.63;9.60;;;19.90;90.80;;;;;;5054124;28;20021;-77
2021/09/15 01:12:02;;;;;;;12.07;8.40;;;19.90;90.90;;;;;;5054276;28;20056;-77
2021/09/15 01:14:28;;;;;;;14.43;10.00;;;19.90;90.80;;;;;;5052879;28;20128;-76
2021/09/15 01:16:57;;;;;;;13.50;11.13;;;19.80;90.80;;;;;;5054438;28;20021;-77
2021/09/15 01:19:23;;;;;;;15.07;12.23;;;19.80;91.00;;;;;;5053852;28;20025;-76
2021/09/15 01:21:50;;;;;;;13.52;10.27;;;19.70;91.00;;;;;;5054548;28;20058;-76
2021/09/15 01:24:16;;;;;;;13.48;9.82;;;19.80;91.00;;;;;;5052484;28;20033;-76
2021/09/15 01:26:42;;;;;;;11.13;9.05;;;19.70;91.00;;;;;;5054270;28;20028;-76
2021/09/15 01:29:18;;;;;;;10.70;8.73;;;19.70;91.10;;;;;;5052390;28;20534;-75
2021/09/15 01:32:00;;;;;;;10.15;8.70;;;19.70;91.10;;;;;;5052582;28;20024;-76
2021/09/15 01:34:27;;;;;;;13.10;8.93;;;19.60;91.10;;;;;;5053512;28;20078;-77
2021/09/15 01:36:53;;;;;;;11.57;9.02;;;19.70;91.20;;;;;;5053752;28;20036;-76
2021/09/15 01:39:18;;;;;;;12.00;10.05;;;19.70;91.30;;;;;;5053080;28;20389;-75
2021/09/15 01:41:44;;;;;;;11.45;9.70;;;19.60;91.30;;;;;;5053555;28;20025;-76
2021/09/15 01:44:10;;;;;;;11.88;9.27;;;19.60;91.30;;;;;;5051990;28;20053;-76
2021/09/15 01:46:36;;;;;;;9.95;7.97;;;19.60;91.40;;;;;;5052338;28;20025;-77
2021/09/15 01:49:01;;;;;;;9.57;8.18;;;19.60;91.40;;;;;;5052833;28;20075;-77
2021/09/15 01:51:27;;;;;;;12.60;8.90;;;19.50;91.40;;;;;;5052476;28;20025;-76
2021/09/15 01:53:52;;;;;;;11.30;8.00;;;19.50;91.40;;;;;;5052740;28;20029;-77
2021/09/15 01:56:18;;;;;;;10.27;8.20;;;19.50;91.40;;;;;;5052538;28;20527;-76
2021/09/15 01:58:44;;;;;;;10.82;8.57;;;19.50;91.40;;;;;;5054397;28;20110;-76
2021/09/15 02:01:10;;;;;;;10.10;7.60;;;19.50;91.40;;;;;;5063015;28;20072;-75
2021/09/15 02:03:35;;;;;;;9.85;8.02;;;19.40;91.40;;;;;;5061164;28;20025;-76
2021/09/15 02:06:01;;;;;;;10.85;8.50;;;19.40;91.50;;;;;;5063114;28;20055;-76
2021/09/15 02:08:27;;;;;;;13.48;8.52;;;19.40;91.50;;;;;;5054038;28;20021;-75
2021/09/15 02:10:52;;;;;;;12.40;9.25;;;19.30;91.50;;;;;;5056596;28;20533;-76
2021/09/15 02:13:18;;;;;;;11.63;8.77;;;19.40;91.50;;;;;;5053440;28;20039;-76
2021/09/15 02:15:44;;;;;;;12.02;9.20;;;19.30;91.60;;;;;;5053604;28;20517;-76
2021/09/15 02:18:10;;;;;;;11.73;8.20;;;19.30;91.60;;;;;;5053423;28;20049;-76
2021/09/15 02:20:35;;;;;;;12.75;9.05;;;19.30;91.70;;;;;;5053172;28;20060;-76
2021/09/15 02:23:02;;;;;;;11.95;8.73;;;19.30;91.70;;;;;;5051982;28;20381;-76
2021/09/15 02:25:28;;;;;;;11.82;9.30;;;19.30;91.70;;;;;;5053201;28;20096;-76
2021/09/15 02:27:54;;;;;;;13.00;10.48;;;19.30;91.80;;;;;;5052109;28;20067;-76
2021/09/15 02:30:19;;;;;;;10.77;9.43;;;19.30;91.80;;;;;;5052473;28;20116;-76
2021/09/15 02:32:45;;;;;;;10.52;8.55;;;19.20;91.80;;;;;;5052575;28;20454;-76
2021/09/15 02:35:11;;;;;;;13.68;9.10;;;19.20;91.90;;;;;;5052392;28;20047;-77
2021/09/15 02:37:36;;;;;;;12.23;10.73;;;19.20;91.90;;;;;;5054166;28;20484;-77
2021/09/15 02:40:03;;;;;;;14.73;11.13;;;19.20;91.90;;;;;;5052372;28;20484;-76
2021/09/15 02:42:28;;;;;;;12.05;9.68;;;19.20;92.00;;;;;;5052220;28;20029;-77
2021/09/15 02:44:54;;;;;;;10.95;9.15;;;19.20;92.10;;;;;;5051595;28;20044;-76
2021/09/15 02:47:20;;;;;;;10.77;9.00;;;19.20;92.00;;;;;;5051456;28;20052;-77
2021/09/15 02:49:45;;;;;;;14.02;11.15;;;19.30;92.00;;;;;;5053346;28;20021;-77
2021/09/15 02:52:11;;;;;;;11.63;9.68;;;19.30;92.00;;;;;;5051601;28;20493;-75
2021/09/15 02:54:36;;;;;;;12.57;9.48;;;19.30;92.10;;;;;;5053097;28;20470;-76
2021/09/15 02:57:02;;;;;;;12.75;10.50;;;19.30;92.40;;;;;;5053277;28;20128;-76
2021/09/15 02:59:28;;;;;;;13.63;9.85;;;19.30;92.10;;;;;;5053271;28;20079;-78
2021/09/15 03:01:53;;;;;;;12.13;9.93;;;19.30;92.10;;;;;;5051845;28;20112;-76
2021/09/15 03:04:19;;;;;;;11.63;9.05;;;19.30;92.20;;;;;;5051140;28;20417;-76
2021/09/15 03:06:44;;;;;;;13.25;10.52;;;19.30;92.20;;;;;;5051548;28;20044;-76
2021/09/15 03:09:10;;;;;;;12.18;9.93;;;19.30;92.20;;;;;;5052297;28;20398;-77
2021/09/15 03:11:36;;;;;;;12.30;9.38;;;19.30;92.20;;;;;;5053217;28;20064;-77
2021/09/15 03:14:02;;;;;;;14.68;10.15;;;19.30;92.20;;;;;;5051813;28;20029;-77
2021/09/15 03:16:28;;;;;;;13.48;10.50;;;19.30;92.30;;;;;;5051104;28;20029;-77
2021/09/15 03:18:53;;;;;;;10.15;8.40;;;19.30;92.30;;;;;;5051105;28;20025;-78
2021/09/15 03:21:19;;;;;;;12.02;10.52;;;19.30;92.30;;;;;;5050781;28;20056;-75
2021/09/15 03:23:44;;;;;;;13.82;9.90;;;19.40;92.30;;;;;;5055372;28;20033;-75
2021/09/15 03:26:10;;;;;;;12.40;10.30;;;19.40;92.30;;;;;;5054992;28;20438;-77
2021/09/15 03:28:36;;;;;;;13.82;10.73;;;19.40;92.30;;;;;;5054462;28;20048;-77
2021/09/15 03:31:01;;;;;;;12.75;11.15;;;19.40;92.30;;;;;;5054845;28;20029;-77
2021/09/15 03:33:27;;;;;;;12.10;10.70;;;19.40;92.30;;;;;;5054169;28;20025;-77
2021/09/15 03:35:52;;;;;;;12.48;10.52;;;19.40;92.40;;;;;;5054652;28;20108;-77
2021/09/15 03:38:18;;;;;;;14.88;11.75;;;19.40;92.40;;;;;;5054225;28;20017;-77
2021/09/15 03:40:43;;;;;;;15.63;11.82;;;19.40;92.50;;;;;;5055599;28;20515;-76
2021/09/15 03:43:09;;;;;;;14.23;10.77;;;19.40;92.50;;;;;;5055398;28;20108;-77
2021/09/15 03:45:35;;;;;;;12.48;10.48;;;19.40;92.50;;;;;;5053900;28;20021;-75
2021/09/15 03:48:00;;;;;;;11.95;9.95;;;19.40;92.50;;;;;;5054464;28;20029;-76
2021/09/15 03:50:26;;;;;;;18.95;13.27;;;19.40;92.50;;;;;;5056203;28;20469;-76
2021/09/15 03:52:51;;;;;;;14.50;11.77;;;19.40;92.60;;;;;;5057260;28;20033;-78
2021/09/15 03:55:17;;;;;;;15.13;11.75;;;19.40;92.60;;;;;;5059647;28;20028;-78
2021/09/15 03:57:43;;;;;;;9.55;7.93;;;19.40;92.60;;;;;;5076919;28;20033;-76
2021/09/15 04:00:10;;;;;;;11.55;9.23;;;19.40;92.60;;;;;;5060502;28;20025;-76
2021/09/15 04:02:36;;;;;;;12.35;8.88;;;19.40;92.50;;;;;;5075732;28;20036;-77
2021/09/15 04:05:01;;;;;;;14.30;10.48;;;19.50;92.50;;;;;;5056191;28;20033;-77
2021/09/15 04:07:27;;;;;;;12.48;8.23;;;19.50;92.50;;;;;;5054277;28;20052;-77
2021/09/15 04:09:52;;;;;;;11.50;9.13;;;19.50;92.40;;;;;;5054383;28;20022;-76
2021/09/15 04:12:18;;;;;;;13.85;10.20;;;19.40;92.40;;;;;;5055419;28;20071;-76
2021/09/15 04:14:44;;;;;;;11.13;9.07;;;19.50;92.30;;;;;;5054372;28;20037;-76
2021/09/15 04:17:10;;;;;;;10.30;9.20;;;19.50;92.40;;;;;;5054358;28;20025;-76
2021/09/15 04:19:35;;;;;;;10.25;8.23;;;19.40;92.40;;;;;;5055241;28;20021;-77
2021/09/15 04:22:01;;;;;;;12.30;10.32;;;19.50;92.40;;;;;;5054056;28;20021;-77
2021/09/15 04:32:53;;;;;;;12.68;9.48;;;19.50;92.50;;;;;;5055486;28;20044;-76
2021/09/15 04:35:18;;;;;;;16.25;12.05;;;19.50;92.50;;;;;;5054979;28;20025;-77
2021/09/15 04:37:44;;;;;;;13.88;11.50;;;19.40;92.50;;;;;;5053277;28;20021;-77
2021/09/15 04:40:10;;;;;;;12.02;9.55;;;19.40;92.60;;;;;;5054776;28;20027;-77
2021/09/15 04:42:36;;;;;;;14.27;10.50;;;19.40;92.60;;;;;;5053321;28;20047;-77
2021/09/15 04:45:02;;;;;;;11.75;10.32;;;19.40;92.60;;;;;;5054522;28;20025;-77
2021/09/15 04:47:27;;;;;;;12.43;10.30;;;19.40;92.60;;;;;;5054515;28;20450;-76
2021/09/15 04:49:53;;;;;;;13.52;11.07;;;19.40;92.70;;;;;;5053585;28;20025;-76
2021/09/15 04:52:18;;;;;;;12.25;9.85;;;19.40;92.70;;;;;;5055714;28;20373;-76
2021/09/15 04:54:44;;;;;;;14.02;11.63;;;19.40;92.70;;;;;;5054772;28;20033;-78
2021/09/15 04:57:10;;;;;;;14.57;10.90;;;19.40;92.70;;;;;;5053917;28;20481;-77
2021/09/15 04:59:36;;;;;;;13.98;11.38;;;19.40;92.80;;;;;;5053911;28;20056;-76
2021/09/15 05:02:02;;;;;;;16.10;11.00;;;19.40;92.80;;;;;;5055216;28;20509;-77
2021/09/15 05:04:28;;;;;;;12.20;10.02;;;19.40;92.80;;;;;;5053304;28;20040;-76
2021/09/15 05:06:55;;;;;;;11.93;9.95;;;19.40;92.90;;;;;;5054772;28;20167;-77
2021/09/15 05:09:21;;;;;;;13.30;9.88;;;19.40;92.80;;;;;;5053414;28;20029;-76
2021/09/15 05:11:46;;;;;;;12.23;10.18;;;19.40;92.80;;;;;;5054072;28;20139;-76
2021/09/15 05:14:12;;;;;;;12.65;10.95;;;19.40;92.80;;;;;;5054913;28;20102;-77
2021/09/15 05:16:37;;;;;;;18.55;11.13;;;19.40;92.80;;;;;;5054102;28;20116;-76
2021/09/15 05:19:03;;;;;;;13.30;9.93;;;19.40;92.80;;;;;;5055245;28;20032;-77
2021/09/15 05:21:28;;;;;;;13.10;10.80;;;19.40;92.80;;;;;;5053145;28;20461;-77
2021/09/15 05:23:57;;;;;;;13.98;10.20;;;19.40;92.80;;;;;;5054443;28;20037;-78
2021/09/15 05:26:23;;;;;;;12.60;8.88;;;19.40;92.80;;;;;;5054516;28;20025;-77
2021/09/15 05:28:48;;;;;;;11.20;10.00;;;19.40;92.80;;;;;;5053134;28;20060;-76
2021/09/15 05:31:14;;;;;;;12.70;9.95;;;19.40;92.80;;;;;;5053111;28;20461;-76
2021/09/15 05:33:40;;;;;;;10.95;9.43;;;19.40;92.80;;;;;;5053791;28;20024;-77
2021/09/15 05:36:05;;;;;;;14.15;10.55;;;19.50;92.80;;;;;;5053529;28;20025;-76
2021/09/15 05:38:31;;;;;;;14.93;10.02;;;19.40;92.80;;;;;;5053106;28;20025;-77
2021/09/15 05:40:57;;;;;;;12.32;8.27;;;19.40;92.80;;;;;;5054815;28;20021;-79
2021/09/15 05:43:25;;;;;;;9.35;7.32;;;19.40;92.80;;;;;;5052606;28;20040;-78
2021/09/15 05:45:51;;;;;;;9.02;7.72;;;19.50;93.10;;;;;;5053162;28;20070;-80
2021/09/15 05:48:16;;;;;;;10.52;8.27;;;19.50;92.80;;;;;;5053255;28;20461;-77
2021/09/15 05:50:42;;;;;;;12.63;9.60;;;19.40;92.70;;;;;;5059572;28;20021;-78
2021/09/15 05:53:10;;;;;;;13.73;9.63;;;19.50;92.70;;;;;;5069908;28;20469;-77
2021/09/15 05:55:36;;;;;;;15.77;11.15;;;19.50;92.60;;;;;;5049579;28;19998;-78
2021/09/15 05:58:01;;;;;;;12.10;8.70;;;19.50;92.60;;;;;;5059160;28;20143;-78
2021/09/15 06:00:27;;;;;;;13.00;10.15;;;19.50;92.60;;;;;;5041390;28;20033;-78
2021/09/15 06:02:55;;;;;;;12.73;10.23;;;19.50;92.70;;;;;;5039968;28;20014;-77
2021/09/15 06:05:21;;;;;;;13.25;10.40;;;19.50;92.70;;;;;;5048246;28;20396;-77
2021/09/15 06:07:46;;;;;;;12.52;10.65;;;19.50;92.70;;;;;;5033876;28;20072;-78
2021/09/15 06:10:12;;;;;;;16.92;12.93;;;19.50;92.70;;;;;;5033299;28;20569;-78
2021/09/15 06:12:38;;;;;;;19.23;14.43;;;19.50;92.80;;;;;;5032960;28;20028;-76
2021/09/15 06:15:04;;;;;;;17.05;13.20;;;19.50;92.90;;;;;;5031895;28;20365;-77
2021/09/15 06:17:29;;;;;;;18.30;14.10;;;19.50;93.00;;;;;;5032251;28;20028;-77
2021/09/15 06:19:55;;;;;;;15.07;13.05;;;19.50;93.10;;;;;;5032556;28;20021;-78
2021/09/15 06:22:20;;;;;;;19.65;15.32;;;19.50;93.20;;;;;;5031706;28;20095;-78
2021/09/15 06:24:49;;;;;;;17.17;12.43;;;19.40;93.30;;;;;;5031971;28;20056;-77
2021/09/15 06:27:18;;;;;;;15.73;12.52;;;19.50;93.40;;;;;;5031973;28;20025;-78
2021/09/15 06:29:43;;;;;;;18.83;13.82;;;19.50;93.40;;;;;;5031409;28;20069;-78
2021/09/15 06:32:09;;;;;;;17.40;14.10;;;19.50;93.40;;;;;;5031952;28;20060;-78
2021/09/15 06:34:35;;;;;;;16.15;13.43;;;19.50;93.40;;;;;;5032835;28;20029;-78
2021/09/15 06:37:00;;;;;;;16.25;14.52;;;19.50;93.40;;;;;;5032076;28;20073;-78
2021/09/15 06:39:26;;;;;;;16.95;12.90;;;19.50;93.50;;;;;;5031445;28;20101;-77
2021/09/15 06:41:51;;;;;;;18.42;14.90;;;19.50;93.50;;;;;;5033099;28;20030;-77
2021/09/15 06:44:17;;;;;;;18.70;15.13;;;19.60;93.50;;;;;;5032866;28;20033;-78
2021/09/15 06:46:42;;;;;;;17.98;13.07;;;19.60;93.60;;;;;;5031628;28;20454;-77
2021/09/15 06:49:08;;;;;;;14.68;12.13;;;19.60;93.60;;;;;;5033257;28;20034;-78
2021/09/15 06:51:34;;;;;;;13.48;10.40;;;19.60;93.60;;;;;;5031469;28;20032;-78
2021/09/15 06:53:59;;;;;;;13.38;10.38;;;19.60;93.50;;;;;;5032461;28;20057;-78
2021/09/15 06:56:25;;;;;;;15.48;10.38;;;19.60;93.50;;;;;;5030792;28;20021;-78
2021/09/15 06:58:50;;;;;;;15.35;11.75;;;19.60;93.50;;;;;;5031346;28;20036;-78
2021/09/15 07:01:16;;;;;;;17.67;13.80;;;19.70;93.40;;;;;;5031354;28;20018;-78
2021/09/15 07:03:41;;;;;;;16.60;14.15;;;19.70;93.40;;;;;;5031810;28;20060;-78
2021/09/15 07:06:07;;;;;;;14.75;12.88;;;19.70;93.40;;;;;;5032691;28;20109;-76
2021/09/15 07:08:33;;;;;;;14.90;12.38;;;19.70;93.30;;;;;;5031050;28;20026;-77
2021/09/15 07:10:58;;;;;;;16.27;12.55;;;19.70;93.40;;;;;;5031531;28;20072;-77
2021/09/15 07:13:28;;;;;;;15.73;12.43;;;19.80;93.40;;;;;;5032762;28;20442;-77
2021/09/15 07:15:54;;;;;;;19.85;16.60;;;19.70;93.40;;;;;;5031280;28;20025;-78
2021/09/15 07:18:20;;;;;;;19.27;16.50;;;19.70;93.10;;;;;;5035985;28;20044;-78
2021/09/15 07:20:46;;;;;;;19.23;17.08;;;19.70;93.30;;;;;;5045631;28;20408;-76
2021/09/15 07:23:11;;;;;;;24.30;15.80;;;19.70;93.40;;;;;;5032500;28;20036;-77
2021/09/15 07:25:37;;;;;;;19.55;15.18;;;19.70;93.50;;;;;;5032406;28;20026;-77
2021/09/15 07:28:03;;;;;;;16.20;13.55;;;19.70;93.60;;;;;;5030933;28;20040;-77
2021/09/15 07:30:28;;;;;;;14.43;11.60;;;19.70;93.60;;;;;;5031156;28;20025;-77
2021/09/15 07:32:54;;;;;;;14.63;11.63;;;19.70;93.60;;;;;;5032763;28;20055;-77
2021/09/15 07:35:20;;;;;;;15.40;13.48;;;19.70;93.60;;;;;;5033121;28;20022;-76
2021/09/15 07:37:45;;;;;;;15.98;12.27;;;19.70;93.50;;;;;;5032885;28;20472;-78
2021/09/15 07:40:12;;;;;;;16.63;12.13;;;19.80;93.50;;;;;;5030804;28;20024;-77
2021/09/15 07:42:37;;;;;;;16.30;11.88;;;19.80;93.50;;;;;;5032630;28;20026;-77
2021/09/15 07:45:04;;;;;;;12.27;10.48;;;19.80;93.50;;;;;;5032263;28;20059;-78
2021/09/15 07:47:29;;;;;;;17.92;14.00;;;19.90;93.40;;;;;;5033182;28;20424;-76
2021/09/15 07:49:55;;;;;;;15.70;13.60;;;19.90;93.20;;;;;;5034997;28;20049;-77
2021/09/15 07:52:21;;;;;;;15.57;13.10;;;19.90;93.30;;;;;;5031590;28;20032;-77
2021/09/15 07:54:46;;;;;;;22.20;18.20;;;19.90;93.30;;;;;;5032134;28;20036;-77
2021/09/15 07:57:12;;;;;;;19.10;16.70;;;19.90;93.40;;;;;;5032363;28;20037;-76
2021/09/15 07:59:38;;;;;;;18.65;15.73;;;19.90;93.40;;;;;;5030826;28;20049;-78
2021/09/15 08:02:04;;;;;;;18.75;14.40;;;19.90;93.50;;;;;;5031576;28;20467;-76
2021/09/15 08:04:29;;;;;;;15.43;12.60;;;19.80;93.50;;;;;;5030832;28;20037;-78
2021/09/15 08:06:55;;;;;;;16.17;13.23;;;19.80;93.50;;;;;;5030830;28;20382;-79
2021/09/15 08:09:21;;;;;;;17.88;16.00;;;19.90;93.50;;;;;;5033347;28;20028;-79
2021/09/15 08:11:47;;;;;;;13.20;11.80;;;19.90;93.50;;;;;;5034900;28;20031;-78
2021/09/15 08:14:12;;;;;;;13.20;10.77;;;19.90;93.50;;;;;;5035537;28;20036;-79
2021/09/15 08:16:38;;;;;;;15.88;13.25;;;19.90;93.00;;;;;;5036150;28;20467;-79
2021/09/15 08:19:04;;;;;;;13.05;11.02;;;19.90;93.00;;;;;;5034620;28;20124;-79
2021/09/15 08:21:32;;;;;;;14.27;12.73;;;20.00;93.10;;;;;;5036354;28;20089;-77
2021/09/15 08:23:59;;;;;;;16.67;13.52;;;20.00;93.10;;;;;;5035873;28;20470;-77
2021/09/15 08:26:25;;;;;;;12.13;9.35;;;20.10;93.10;;;;;;5036738;28;20022;-79
2021/09/15 08:28:51;;;;;;;12.13;9.65;;;20.10;93.00;;;;;;5033866;28;20476;-79
2021/09/15 08:31:17;;;;;;;13.30;8.93;;;20.10;92.70;;;;;;5034613;28;20022;-79
2021/09/15 08:33:42;;;;;;;14.05;12.23;;;20.20;92.00;;;;;;5034767;28;20044;-78
2021/09/15 08:36:08;;;;;;;18.35;16.42;;;20.20;91.50;;;;;;5034971;28;20017;-78
2021/09/15 08:38:33;;;;;;;21.73;17.55;;;20.40;91.40;;;;;;5035282;28;20021;-79
2021/09/15 08:40:59;;;;;;;20.17;17.75;;;20.50;91.40;;;;;;5034148;28;20045;-79
2021/09/15 08:43:25;;;;;;;19.33;17.17;;;20.50;91.60;;;;;;5034590;28;20393;-78
2021/09/15 08:45:51;;;;;;;21.38;18.40;;;20.50;91.90;;;;;;5034072;28;20033;-81
2021/09/15 08:48:21;;;;;;;20.52;18.15;;;20.50;92.00;;;;;;5035194;28;20035;-79
2021/09/15 08:50:51;;;;;;;20.80;18.45;;;20.60;92.10;;;;;;5036949;28;20028;-79
2021/09/15 08:53:20;;;;;;;21.88;18.10;;;20.60;92.10;;;;;;5035873;28;20113;-79
2021/09/15 08:55:47;;;;;;;23.77;21.13;;;20.60;92.20;;;;;;5034607;28;20017;-80
2021/09/15 08:58:16;;;;;;;25.80;22.83;;;20.70;92.30;;;;;;5033752;28;20756;-79
2021/09/15 09:00:45;;;;;;;27.10;22.65;;;20.70;92.30;;;;;;5035783;28;20021;-79
2021/09/15 09:03:11;;;;;;;23.20;20.45;;;20.80;92.30;;;;;;5035532;28;20040;-80
2021/09/15 09:05:37;;;;;;;24.85;22.15;;;20.70;92.30;;;;;;5033318;28;20021;-79
2021/09/15 09:08:15;;;;;;;22.95;20.50;;;20.70;92.30;;;;;;5033621;28;20108;-79
2021/09/15 09:10:55;;;;;;;27.45;23.33;;;20.80;92.40;;;;;;5033309;28;20021;-78
2021/09/15 09:13:21;;;;;;;28.10;24.33;;;20.80;92.20;;;;;;5034062;28;20025;-79
2021/09/15 09:15:47;;;;;;;26.95;24.08;;;20.90;92.20;;;;;;5033186;28;20024;-78
2021/09/15 09:18:12;;;;;;;31.33;26.70;;;21.00;92.10;;;;;;5033853;28;20025;-79
2021/09/15 09:20:39;;;;;;;25.45;21.95;;;21.10;92.00;;;;;;5033280;28;20025;-79
2021/09/15 09:23:14;;;;;;;28.85;24.73;;;21.20;91.60;;;;;;5043058;28;20027;-78
2021/09/15 09:25:58;;;;;;;29.38;25.33;;;21.40;91.60;;;;;;5045831;28;20021;-79
2021/09/15 09:28:24;;;;;;;30.58;26.85;;;21.50;91.50;;;;;;5035255;28;20029;-80
2021/09/15 09:30:52;;;;;;;31.65;28.17;;;21.60;91.40;;;;;;5033782;28;20025;-80
2021/09/15 09:33:18;;;;;;;24.33;21.08;;;21.60;91.30;;;;;;5033353;28;20405;-80
2021/09/15 09:35:53;;;;;;;27.30;22.80;;;21.70;91.00;;;;;;5032981;28;20025;-79
2021/09/15 09:38:20;;;;;;;36.13;29.50;;;21.80;91.00;;;;;;5033657;28;20036;-79
2021/09/15 09:41:01;;;;;;;37.92;31.48;;;21.70;91.00;;;;;;5033455;28;20022;-80
2021/09/15 09:43:28;;;;;;;37.67;31.38;;;21.70;91.10;;;;;;5033727;28;20037;-79
2021/09/15 09:45:54;;;;;;;41.03;33.45;;;21.60;91.10;;;;;;5032320;28;20025;-79
2021/09/15 09:48:39;;;;;;;35.45;30.90;;;21.60;91.20;;;;;;5032680;28;20116;-81
2021/09/15 09:51:22;;;;;;;30.95;26.83;;;21.50;91.20;;;;;;5032909;28;20112;-80
2021/09/15 09:53:49;;;;;;;37.72;32.25;;;21.50;91.10;;;;;;5034908;28;20029;-81
2021/09/15 09:56:15;;;;;;;42.75;38.05;;;21.50;91.10;;;;;;5033808;28;20029;-79
2021/09/15 09:58:44;;;;;;;39.05;34.58;;;21.40;91.10;;;;;;5034387;28;20108;-80
2021/09/15 10:01:16;;;;;;;41.03;34.00;;;21.40;91.30;;;;;;5032067;28;20392;-82
2021/09/15 10:03:44;;;;;;;48.83;41.45;;;21.40;91.30;;;;;;5032194;28;20052;-80
2021/09/15 10:06:09;;;;;;;43.75;38.28;;;21.30;91.30;;;;;;5032179;28;20018;-80
2021/09/15 10:08:36;;;;;;;44.65;38.08;;;21.30;91.40;;;;;;5031548;28;20036;-80
2021/09/15 10:11:02;;;;;;;44.30;37.90;;;21.40;91.10;;;;;;5032192;28;20040;-80
2021/09/15 10:13:28;;;;;;;43.47;38.30;;;21.40;91.20;;;;;;5033494;28;20172;-80
2021/09/15 10:16:02;;;;;;;33.85;28.63;;;21.50;91.30;;;;;;5032155;28;20207;-80
2021/09/15 10:18:28;;;;;;;36.40;31.33;;;21.60;90.60;;;;;;5031936;28;20026;-81
2021/09/15 10:20:56;;;;;;;37.70;31.52;;;21.60;90.70;;;;;;5031717;28;20474;-80
2021/09/15 10:23:47;;;;;;;42.47;35.22;;;21.70;90.70;;;;;;5031451;28;20048;-80
2021/09/15 10:26:32;;;;;;;41.10;31.70;;;21.80;90.70;;;;;;5031967;28;20523;-80
2021/09/15 10:29:13;;;;;;;40.08;33.85;;;21.90;90.70;;;;;;5031626;28;20036;-79
2021/09/15 10:31:53;;;;;;;33.35;28.63;;;22.00;90.50;;;;;;5031486;28;20083;-81
2021/09/15 10:34:38;;;;;;;32.55;28.20;;;22.00;90.60;;;;;;5031728;28;20129;-80
2021/09/15 10:37:05;;;;;;;46.40;39.13;;;21.90;90.10;;;;;;5033241;28;20021;-81
2021/09/15 10:39:31;;;;;;;53.92;41.03;;;21.80;90.00;;;;;;5031816;28;20024;-82
2021/09/15 10:42:04;;;;;;;38.50;32.08;;;21.70;90.00;;;;;;5033479;28;20545;-80
2021/09/15 10:44:29;;;;;;;45.88;35.20;;;21.60;90.20;;;;;;5033233;28;20022;-79
2021/09/15 10:47:16;;;;;;;41.53;34.05;;;21.60;90.40;;;;;;5032642;28;20029;-81
2021/09/15 10:49:42;;;;;;;36.45;31.55;;;21.50;90.60;;;;;;5031690;28;20017;-81
2021/09/15 10:52:11;;;;;;;41.50;31.77;;;21.50;90.70;;;;;;5032060;28;20034;-81
2021/09/15 10:54:41;;;;;;;40.58;31.83;;;21.50;90.40;;;;;;5031641;28;20032;-79
2021/09/15 10:57:27;;;;;;;36.70;31.23;;;21.50;90.50;;;;;;5031819;28;20029;-79
2021/09/15 11:00:21;;;;;;;35.35;26.52;;;21.60;90.60;;;;;;5032992;28;20765;-80
2021/09/15 11:02:49;;;;;;;49.47;41.33;;;21.80;90.10;;;;;;5031313;28;20108;-80
2021/09/15 11:05:27;;;;;;;43.67;34.08;;;21.90;89.40;;;;;;5032260;28;20441;-80
2021/09/15 11:07:57;;;;;;;37.85;29.05;;;21.90;88.60;;;;;;5032506;28;20068;-81
2021/09/15 11:10:34;;;;;;;47.80;37.63;;;22.00;86.40;;;;;;5032104;28;20417;-82
2021/09/15 11:13:14;;;;;;;37.80;29.92;;;22.00;86.60;;;;;;5031821;28;20033;-80
2021/09/15 11:15:52;;;;;;;40.30;31.83;;;22.00;86.40;;;;;;5033413;28;20029;-80
2021/09/15 11:18:25;;;;;;;38.05;29.48;;;22.10;85.20;;;;;;5032212;28;20030;-80
2021/09/15 11:21:11;;;;;;;37.03;28.67;;;22.40;85.00;;;;;;5034397;28;20033;-80
2021/09/15 11:23:36;;;;;;;40.17;31.17;;;22.60;84.20;;;;;;5033618;28;20048;-81
2021/09/15 11:26:04;;;;;;;33.00;26.42;;;22.70;84.20;;;;;;5037691;28;20006;-80
2021/09/15 11:28:30;;;;;;;31.88;27.15;;;23.00;83.40;;;;;;5051270;28;20049;-81
2021/09/15 11:30:57;;;;;;;25.23;20.52;;;23.20;82.60;;;;;;5033571;28;20059;-80
2021/09/15 11:33:31;;;;;;;21.85;18.55;;;23.30;80.80;;;;;;5034406;28;20121;-80
2021/09/15 11:35:59;;;;;;;28.55;24.13;;;23.40;79.50;;;;;;5033992;28;20022;-81
2021/09/15 11:38:27;;;;;;;20.77;18.27;;;23.60;80.00;;;;;;5034179;28;20124;-80
2021/09/15 11:41:10;;;;;;;18.85;15.85;;;23.60;79.10;;;;;;5033198;28;20026;-81
2021/09/15 11:43:36;;;;;;;14.45;11.77;;;23.50;77.30;;;;;;5037338;28;20025;-79
2021/09/15 11:46:03;;;;;;;19.80;15.95;;;23.30;76.80;;;;;;5039938;28;20112;-80
2021/09/15 11:48:30;;;;;;;12.35;9.40;;;23.10;77.00;;;;;;5038397;28;20385;-81
2021/09/15 11:50:56;;;;;;;15.32;11.35;;;23.00;77.70;;;;;;5036665;28;20021;-81
2021/09/15 11:53:24;;;;;;;27.40;23.42;;;22.90;78.10;;;;;;5036233;28;20034;-82
2021/09/15 11:55:59;;;;;;;30.55;24.45;;;22.90;79.00;;;;;;5036213;28;20450;-79
2021/09/15 11:58:26;;;;;;;30.52;25.80;;;22.70;79.30;;;;;;5036143;28;20029;-79
2021/09/15 12:00:53;;;;;;;38.13;34.10;;;22.50;79.80;;;;;;5035654;28;20438;-82
2021/09/15 12:03:27;;;;;;;37.17;33.20;;;22.50;79.10;;;;;;5036160;28;20060;-81
2021/09/15 12:05:58;;;;;;;33.53;28.27;;;22.40;79.50;;;;;;5035363;28;20029;-80
2021/09/15 12:08:25;;;;;;;38.53;34.30;;;22.30;80.00;;;;;;5036636;28;20034;-81
2021/09/15 12:10:56;;;;;;;28.50;25.15;;;22.20;80.40;;;;;;5034954;28;20104;-81
2021/09/15 12:13:29;;;;;;;36.67;31.30;;;22.10;80.10;;;;;;5035523;28;20025;-81
2021/09/15 12:15:55;;;;;;;29.40;26.20;;;22.00;80.80;;;;;;5035095;28;20034;-81
2021/09/15 12:18:21;;;;;;;22.73;20.23;;;22.00;80.80;;;;;;5035234;28;20079;-80
2021/09/15 12:20:50;;;;;;;25.50;22.85;;;22.00;80.20;;;;;;5035708;28;20088;-79
2021/09/15 12:23:30;;;;;;;19.45;17.17;;;22.00;80.80;;;;;;5035681;28;20071;-79
2021/09/15 12:25:56;;;;;;;27.15;19.73;;;22.00;80.30;;;;;;5039311;28;20034;-80
2021/09/15 12:28:23;;;;;;;17.98;15.32;;;22.10;79.90;;;;;;5040723;28;20033;-80
2021/09/15 12:30:48;;;;;;;17.50;15.70;;;22.10;79.40;;;;;;5035317;28;20085;-80
2021/09/15 12:33:33;;;;;;;14.95;10.65;;;22.00;79.50;;;;;;5036761;28;20477;-80
2021/09/15 12:36:16;;;;;;;15.20;11.55;;;22.10;79.50;;;;;;5034418;28;20056;-79
2021/09/15 12:38:48;;;;;;;14.80;12.07;;;22.30;79.50;;;;;;5034512;28;20040;-80
2021/09/15 12:41:13;;;;;;;14.07;11.45;;;22.50;77.50;;;;;;5034586;28;20022;-79